createdAt,value
2018-01-30T00:00:49.712Z,0
2018-01-30T00:02:11.637Z,0
2018-01-30T00:03:33.772Z,0
2018-01-30T00:04:55.681Z,0
2018-01-30T00:06:17.544Z,0
2018-01-30T00:07:39.667Z,0
2018-01-30T00:09:01.281Z,0
2018-01-30T00:10:23.304Z,0
2018-01-30T00:11:44.783Z,0
2018-01-30T00:13:06.662Z,0
2018-01-30T00:14:28.811Z,0
2018-01-30T00:15:50.818Z,0
2018-01-30T00:17:12.675Z,0
2018-01-30T00:18:34.513Z,0
2018-01-30T00:19:56.117Z,0
2018-01-30T00:21:17.469Z,0
2018-01-30T00:22:39.672Z,0
2018-01-30T00:24:01.266Z,0
2018-01-30T00:25:23.179Z,0
2018-01-30T00:26:45.116Z,0
2018-01-30T00:28:06.441Z,0
2018-01-30T00:29:28.301Z,0
2018-01-30T00:30:50.162Z,0
2018-01-30T00:32:11.754Z,0
2018-01-30T00:33:33.689Z,0
2018-01-30T00:34:55.800Z,0
2018-01-30T00:36:17.922Z,0
2018-01-30T00:37:39.609Z,0
2018-01-30T00:39:01.462Z,0
2018-01-30T00:40:23.324Z,0
2018-01-30T00:41:44.772Z,0
2018-01-30T00:43:07.003Z,0
2018-01-30T00:44:28.742Z,0
2018-01-30T00:45:50.610Z,0
2018-01-30T00:47:12.583Z,0
2018-01-30T00:48:34.513Z,0
2018-01-30T00:49:56.631Z,0
2018-01-30T00:51:18.513Z,0
2018-01-30T00:52:40.367Z,0
2018-01-30T00:54:02.243Z,0
2018-01-30T00:55:24.083Z,0
2018-01-30T00:56:45.682Z,0
2018-01-30T00:58:07.833Z,0
2018-01-30T00:59:29.948Z,0
2018-01-30T01:00:51.564Z,0
2018-01-30T01:02:13.413Z,0
2018-01-30T01:03:35.553Z,0
2018-01-30T01:04:57.136Z,0
2018-01-30T01:06:19.279Z,0
2018-01-30T01:07:41.135Z,0
2018-01-30T01:09:03.282Z,0
2018-01-30T01:10:25.198Z,0
2018-01-30T01:11:46.887Z,0
2018-01-30T01:13:08.834Z,0
2018-01-30T01:14:30.744Z,0
2018-01-30T01:15:52.611Z,0
2018-01-30T01:17:14.462Z,0
2018-01-30T01:18:36.044Z,0
2018-01-30T01:19:57.903Z,0
2018-01-30T01:21:20.025Z,0
2018-01-30T01:22:41.742Z,0
2018-01-30T01:24:03.602Z,0
2018-01-30T01:25:25.472Z,0
2018-01-30T01:26:47.623Z,0
2018-01-30T01:28:09.496Z,0
2018-01-30T01:29:31.509Z,0
2018-01-30T01:30:53.630Z,0
2018-01-30T01:32:15.879Z,0
2018-01-30T01:33:37.846Z,0
2018-01-30T01:34:59.704Z,0
2018-01-30T01:36:21.568Z,0
2018-01-30T01:37:43.411Z,0
2018-01-30T01:39:05.366Z,0
2018-01-30T01:40:27.086Z,0
2018-01-30T01:41:49.203Z,0
2018-01-30T01:43:11.109Z,0
2018-01-30T01:44:32.964Z,0
2018-01-30T01:45:54.805Z,0
2018-01-30T01:47:16.686Z,0
2018-01-30T01:48:39.056Z,0
2018-01-30T01:50:00.919Z,0
2018-01-30T01:51:21.737Z,0
2018-01-30T01:52:43.603Z,0
2018-01-30T01:54:05.716Z,0
2018-01-30T01:55:27.579Z,0
2018-01-30T01:56:49.455Z,0
2018-01-30T01:58:11.357Z,0
2018-01-30T01:59:33.477Z,0
2018-01-30T02:00:55.335Z,0
2018-01-30T02:02:16.653Z,0
2018-01-30T02:03:38.507Z,0
2018-01-30T02:05:00.122Z,0
2018-01-30T02:06:21.249Z,0
2018-01-30T02:07:42.888Z,0
2018-01-30T02:09:04.496Z,0
2018-01-30T02:10:26.351Z,0
2018-01-30T02:11:47.934Z,0
2018-01-30T02:13:09.546Z,0
2018-01-30T02:14:31.150Z,0
2018-01-30T02:15:53.204Z,0
2018-01-30T02:17:15.085Z,0
2018-01-30T02:18:36.948Z,0
2018-01-30T02:19:58.653Z,0
2018-01-30T02:21:20.350Z,0
2018-01-30T02:22:41.963Z,0
2018-01-30T02:24:03.412Z,0
2018-01-30T02:25:25.070Z,0
2018-01-30T02:26:47.444Z,0
2018-01-30T02:28:09.135Z,0
2018-01-30T02:29:30.503Z,0
2018-01-30T02:30:52.441Z,0
2018-01-30T02:32:14.619Z,0
2018-01-30T02:33:36.241Z,0
2018-01-30T02:34:57.855Z,0
2018-01-30T02:36:19.742Z,0
2018-01-30T02:37:42.132Z,0
2018-01-30T02:39:03.997Z,0
2018-01-30T02:40:25.986Z,0
2018-01-30T02:41:47.649Z,0
2018-01-30T02:43:09.559Z,0
2018-01-30T02:44:31.468Z,0
2018-01-30T02:45:53.498Z,0
2018-01-30T02:47:14.814Z,0
2018-01-30T02:48:36.274Z,0
2018-01-30T02:49:58.415Z,0
2018-01-30T02:51:20.035Z,0
2018-01-30T02:52:42.132Z,0
2018-01-30T02:54:03.775Z,0
2018-01-30T02:55:25.412Z,0
2018-01-30T02:56:46.997Z,0
2018-01-30T02:58:08.576Z,0
2018-01-30T02:59:30.485Z,0
2018-01-30T03:00:52.384Z,0
2018-01-30T03:02:14.244Z,0
2018-01-30T03:03:35.814Z,0
2018-01-30T03:04:57.422Z,0
2018-01-30T03:06:19.269Z,0
2018-01-30T03:07:41.435Z,0
2018-01-30T03:09:03.194Z,0
2018-01-30T03:10:25.037Z,0
2018-01-30T03:11:46.659Z,0
2018-01-30T03:13:08.504Z,0
2018-01-30T03:14:30.363Z,0
2018-01-30T03:15:52.098Z,0
2018-01-30T03:17:13.994Z,0
2018-01-30T03:18:35.685Z,0
2018-01-30T03:19:57.331Z,0
2018-01-30T03:21:18.925Z,0
2018-01-30T03:22:41.156Z,0
2018-01-30T03:24:03.000Z,0
2018-01-30T03:25:24.356Z,0
2018-01-30T03:26:46.733Z,0
2018-01-30T03:28:08.328Z,0
2018-01-30T03:29:30.444Z,0
2018-01-30T03:30:52.069Z,0
2018-01-30T03:32:14.374Z,0
2018-01-30T03:33:35.715Z,0
2018-01-30T03:34:56.891Z,0
2018-01-30T03:36:18.235Z,0
2018-01-30T03:37:40.121Z,0
2018-01-30T03:39:01.458Z,0
2018-01-30T03:40:23.109Z,0
2018-01-30T03:41:44.773Z,0
2018-01-30T03:43:06.463Z,0
2018-01-30T03:44:28.052Z,0
2018-01-30T03:45:49.380Z,0
2018-01-30T03:47:11.275Z,0
2018-01-30T03:48:33.125Z,0
2018-01-30T03:49:54.715Z,0
2018-01-30T03:51:16.046Z,0
2018-01-30T03:52:37.650Z,0
2018-01-30T03:53:59.245Z,0
2018-01-30T03:55:20.895Z,0
2018-01-30T03:56:43.015Z,0
2018-01-30T03:58:04.607Z,0
2018-01-30T03:59:26.298Z,0
2018-01-30T04:00:48.175Z,0
2018-01-30T04:02:10.411Z,0
2018-01-30T04:03:31.756Z,0
2018-01-30T04:04:53.340Z,0
2018-01-30T04:06:15.467Z,0
2018-01-30T04:07:37.080Z,0
2018-01-30T04:08:58.684Z,0
2018-01-30T04:10:19.761Z,0
2018-01-30T04:11:41.393Z,0
2018-01-30T04:13:02.459Z,0
2018-01-30T04:14:24.576Z,0
2018-01-30T04:15:46.559Z,0
2018-01-30T04:17:07.755Z,0
2018-01-30T04:18:29.600Z,0
2018-01-30T04:19:51.205Z,0
2018-01-30T04:21:13.155Z,0
2018-01-30T04:22:35.009Z,0
2018-01-30T04:23:56.795Z,0
2018-01-30T04:25:19.022Z,0
2018-01-30T04:26:41.447Z,0
2018-01-30T04:28:03.058Z,0
2018-01-30T04:29:24.712Z,0
2018-01-30T04:30:46.578Z,0
2018-01-30T04:32:08.154Z,0
2018-01-30T04:33:29.533Z,0
2018-01-30T04:34:51.444Z,0
2018-01-30T04:36:13.284Z,0
2018-01-30T04:37:35.405Z,0
2018-01-30T04:38:58.492Z,0
2018-01-30T04:40:20.377Z,0
2018-01-30T04:41:41.970Z,0
2018-01-30T04:43:04.092Z,0
2018-01-30T04:44:25.952Z,0
2018-01-30T04:45:47.295Z,0
2018-01-30T04:47:09.019Z,0
2018-01-30T04:48:31.130Z,0
2018-01-30T04:49:52.989Z,0
2018-01-30T04:51:14.882Z,0
2018-01-30T04:52:36.464Z,0
2018-01-30T04:53:58.098Z,0
2018-01-30T04:55:19.976Z,0
2018-01-30T04:56:41.824Z,0
2018-01-30T04:58:03.690Z,0
2018-01-30T04:59:25.296Z,0
2018-01-30T05:00:46.899Z,0
2018-01-30T05:02:08.233Z,0
2018-01-30T05:03:29.804Z,0
2018-01-30T05:04:51.706Z,0
2018-01-30T05:06:13.054Z,0
2018-01-30T05:07:34.702Z,0
2018-01-30T05:08:56.628Z,0
2018-01-30T05:10:18.744Z,0
2018-01-30T05:11:40.145Z,0
2018-01-30T05:13:01.744Z,0
2018-01-30T05:14:23.942Z,0
2018-01-30T05:15:45.373Z,0
2018-01-30T05:17:07.240Z,0
2018-01-30T05:18:28.834Z,0
2018-01-30T05:19:51.002Z,0
2018-01-30T05:21:12.756Z,0
2018-01-30T05:22:34.364Z,0
2018-01-30T05:23:55.955Z,0
2018-01-30T05:25:18.049Z,0
2018-01-30T05:26:39.922Z,0
2018-01-30T05:28:01.273Z,0
2018-01-30T05:29:23.294Z,0
2018-01-30T05:30:45.147Z,0
2018-01-30T05:32:07.288Z,0
2018-01-30T05:33:28.639Z,0
2018-01-30T05:34:50.838Z,0
2018-01-30T05:36:12.545Z,0
2018-01-30T05:37:34.153Z,0
2018-01-30T05:38:56.025Z,0
2018-01-30T05:40:18.045Z,0
2018-01-30T05:41:40.184Z,0
2018-01-30T05:43:01.894Z,0
2018-01-30T05:44:24.019Z,0
2018-01-30T05:45:45.956Z,0
2018-01-30T05:47:07.863Z,0
2018-01-30T05:48:29.510Z,0
2018-01-30T05:49:51.700Z,0
2018-01-30T05:51:13.983Z,0
2018-01-30T05:52:36.176Z,0
2018-01-30T05:53:58.053Z,0
2018-01-30T05:55:20.295Z,0
2018-01-30T05:56:42.403Z,0
2018-01-30T05:58:04.551Z,0
2018-01-30T05:59:26.438Z,0
2018-01-30T06:00:47.833Z,0
2018-01-30T06:02:09.697Z,0
2018-01-30T06:03:31.900Z,0
2018-01-30T06:04:53.756Z,0
2018-01-30T06:06:15.861Z,0
2018-01-30T06:07:37.216Z,0
2018-01-30T06:08:59.083Z,0
2018-01-30T06:10:21.496Z,0
2018-01-30T06:11:43.632Z,0
2018-01-30T06:13:05.232Z,0
2018-01-30T06:14:27.101Z,0
2018-01-30T06:15:49.274Z,0
2018-01-30T06:17:10.868Z,0
2018-01-30T06:18:32.567Z,0
2018-01-30T06:19:54.535Z,0
2018-01-30T06:21:16.126Z,0
2018-01-30T06:22:37.448Z,0
2018-01-30T06:23:59.599Z,0
2018-01-30T06:25:21.183Z,0
2018-01-30T06:26:43.146Z,0
2018-01-30T06:28:04.751Z,0
2018-01-30T06:29:26.594Z,0
2018-01-30T06:30:48.703Z,0
2018-01-30T06:32:10.552Z,4
2018-01-30T06:33:32.205Z,0
2018-01-30T06:34:54.073Z,0
2018-01-30T06:36:15.935Z,4
2018-01-30T06:37:38.143Z,4
2018-01-30T06:39:00.250Z,4
2018-01-30T06:40:22.109Z,4
2018-01-30T06:41:43.704Z,4
2018-01-30T06:43:05.191Z,8
2018-01-30T06:44:27.123Z,8
2018-01-30T06:45:48.993Z,12
2018-01-30T06:47:10.857Z,16
2018-01-30T06:48:33.016Z,16
2018-01-30T06:49:55.142Z,24
2018-01-30T06:51:16.801Z,24
2018-01-30T06:52:38.782Z,32
2018-01-30T06:54:00.644Z,40
2018-01-30T06:55:22.473Z,48
2018-01-30T06:56:44.571Z,60
2018-01-30T06:58:06.159Z,72
2018-01-30T06:59:27.767Z,88
2018-01-30T07:00:49.622Z,104
2018-01-30T07:02:11.860Z,120
2018-01-30T07:03:33.762Z,140
2018-01-30T07:04:56.071Z,164
2018-01-30T07:06:17.818Z,188
2018-01-30T07:07:39.731Z,216
2018-01-30T07:09:01.435Z,244
2018-01-30T07:10:23.442Z,276
2018-01-30T07:11:45.370Z,308
2018-01-30T07:13:07.560Z,344
2018-01-30T07:14:29.422Z,384
2018-01-30T07:15:51.679Z,424
2018-01-30T07:17:13.301Z,464
2018-01-30T07:18:35.159Z,520
2018-01-30T07:19:57.341Z,552
2018-01-30T07:21:19.477Z,612
2018-01-30T07:22:41.098Z,672
2018-01-30T07:24:02.432Z,736
2018-01-30T07:25:24.510Z,776
2018-01-30T07:26:48.102Z,840
2018-01-30T07:28:10.283Z,892
2018-01-30T07:29:32.130Z,952
2018-01-30T07:30:54.059Z,1008
2018-01-30T07:32:15.908Z,1072
2018-01-30T07:33:37.518Z,1132
2018-01-30T07:34:59.494Z,1236
2018-01-30T07:36:21.075Z,1256
2018-01-30T07:37:42.405Z,1328
2018-01-30T07:39:04.378Z,1420
2018-01-30T07:40:26.603Z,1476
2018-01-30T07:41:48.211Z,1560
2018-01-30T07:43:10.334Z,1616
2018-01-30T07:44:32.479Z,1708
2018-01-30T07:45:54.359Z,1756
2018-01-30T07:47:16.232Z,1900
2018-01-30T07:48:37.975Z,2068
2018-01-30T07:50:00.333Z,2264
2018-01-30T07:51:22.229Z,2348
2018-01-30T07:52:43.887Z,2380
2018-01-30T07:54:05.527Z,2564
2018-01-30T07:55:26.853Z,2824
2018-01-30T07:56:48.195Z,2620
2018-01-30T07:58:10.074Z,2836
2018-01-30T07:59:32.227Z,2984
2018-01-30T08:00:54.063Z,2948
2018-01-30T08:02:16.043Z,2860
2018-01-30T08:03:38.362Z,2868
2018-01-30T08:05:00.083Z,2684
2018-01-30T08:06:22.207Z,2748
2018-01-30T08:07:44.081Z,2628
2018-01-30T08:09:06.293Z,2712
2018-01-30T08:10:28.429Z,2816
2018-01-30T08:11:50.353Z,2860
2018-01-30T08:13:11.963Z,3060
2018-01-30T08:14:33.830Z,3092
2018-01-30T08:15:55.436Z,3028
2018-01-30T08:17:17.030Z,2936
2018-01-30T08:18:39.143Z,3128
2018-01-30T08:20:01.245Z,3480
2018-01-30T08:21:22.603Z,3172
2018-01-30T08:22:44.502Z,3564
2018-01-30T08:24:06.613Z,4028
2018-01-30T08:25:28.214Z,3380
2018-01-30T08:26:50.318Z,3868
2018-01-30T08:28:11.974Z,3632
2018-01-30T08:29:34.081Z,3916
2018-01-30T08:30:56.217Z,3744
2018-01-30T08:32:18.055Z,3704
2018-01-30T08:33:39.707Z,3928
2018-01-30T08:35:01.377Z,3776
2018-01-30T08:36:23.344Z,4344
2018-01-30T08:37:45.225Z,4008
2018-01-30T08:39:07.086Z,4068
2018-01-30T08:40:29.213Z,4084
2018-01-30T08:41:50.895Z,3784
2018-01-30T08:43:12.528Z,4160
2018-01-30T08:44:34.150Z,4604
2018-01-30T08:45:55.865Z,4452
2018-01-30T08:47:17.740Z,4320
2018-01-30T08:48:39.486Z,4192
2018-01-30T08:50:01.097Z,3780
2018-01-30T08:51:22.694Z,3736
2018-01-30T08:52:44.932Z,4024
2018-01-30T08:54:06.625Z,4992
2018-01-30T08:55:28.234Z,5340
2018-01-30T08:56:50.128Z,4172
2018-01-30T08:58:12.244Z,3872
2018-01-30T08:59:33.934Z,3852
2018-01-30T09:00:56.041Z,3772
2018-01-30T09:02:17.933Z,3704
2018-01-30T09:03:39.813Z,3796
2018-01-30T09:05:01.728Z,3312
2018-01-30T09:06:23.313Z,3400
2018-01-30T09:07:45.206Z,3528
2018-01-30T09:09:06.817Z,3664
2018-01-30T09:10:28.782Z,3608
2018-01-30T09:11:50.644Z,3656
2018-01-30T09:13:12.258Z,3848
2018-01-30T09:14:34.122Z,4028
2018-01-30T09:15:56.084Z,3940
2018-01-30T09:17:17.910Z,4604
2018-01-30T09:18:39.520Z,4392
2018-01-30T09:20:01.232Z,4456
2018-01-30T09:21:23.093Z,5508
2018-01-30T09:22:45.066Z,5252
2018-01-30T09:24:06.487Z,5420
2018-01-30T09:25:28.490Z,6676
2018-01-30T09:26:50.337Z,6288
2018-01-30T09:28:11.954Z,6280
2018-01-30T09:29:33.845Z,6480
2018-01-30T09:30:55.452Z,5812
2018-01-30T09:32:17.675Z,5456
2018-01-30T09:33:39.814Z,5304
2018-01-30T09:35:03.755Z,5104
2018-01-30T09:36:25.870Z,4408
2018-01-30T09:37:48.496Z,4512
2018-01-30T09:39:10.738Z,4420
2018-01-30T09:40:32.628Z,4248
2018-01-30T09:41:54.497Z,4068
2018-01-30T09:43:16.363Z,3872
2018-01-30T09:44:37.490Z,3664
2018-01-30T09:45:59.634Z,3604
2018-01-30T09:47:22.787Z,3940
2018-01-30T09:48:44.882Z,4068
2018-01-30T09:50:07.204Z,4088
2018-01-30T09:51:29.099Z,4152
2018-01-30T09:52:51.101Z,4208
2018-01-30T09:54:13.015Z,4264
2018-01-30T09:55:35.253Z,4380
2018-01-30T09:56:57.309Z,4432
2018-01-30T09:58:19.199Z,4340
2018-01-30T09:59:40.816Z,4608
2018-01-30T10:01:02.682Z,4824
2018-01-30T10:02:24.816Z,4760
2018-01-30T10:03:46.423Z,5040
2018-01-30T10:05:08.042Z,6016
2018-01-30T10:06:30.214Z,7160
2018-01-30T10:07:51.410Z,5980
2018-01-30T10:09:13.073Z,5528
2018-01-30T10:10:35.403Z,5848
2018-01-30T10:11:56.992Z,6292
2018-01-30T10:13:18.961Z,5632
2018-01-30T10:14:40.897Z,5496
2018-01-30T10:16:03.013Z,4944
2018-01-30T10:17:25.277Z,5352
2018-01-30T10:18:47.242Z,4836
2018-01-30T10:20:09.522Z,5092
2018-01-30T10:21:31.442Z,4896
2018-01-30T10:22:53.122Z,4620
2018-01-30T10:24:15.061Z,4752
2018-01-30T10:25:36.653Z,5660
2018-01-30T10:26:58.285Z,6132
2018-01-30T10:28:19.954Z,6176
2018-01-30T10:29:42.175Z,6064
2018-01-30T10:31:04.351Z,5792
2018-01-30T10:32:26.049Z,5560
2018-01-30T10:33:47.975Z,5668
2018-01-30T10:35:10.139Z,5896
2018-01-30T10:36:31.998Z,5416
2018-01-30T10:37:54.102Z,5300
2018-01-30T10:39:16.252Z,4728
2018-01-30T10:40:38.122Z,4596
2018-01-30T10:41:59.830Z,4984
2018-01-30T10:43:22.002Z,5824
2018-01-30T10:44:43.972Z,6008
2018-01-30T10:46:05.866Z,5728
2018-01-30T10:47:27.217Z,5232
2018-01-30T10:48:49.276Z,5324
2018-01-30T10:50:11.180Z,5528
2018-01-30T10:51:33.521Z,4896
2018-01-30T10:52:55.470Z,4696
2018-01-30T10:54:17.743Z,4948
2018-01-30T10:55:39.354Z,5232
2018-01-30T10:57:01.248Z,5724
2018-01-30T10:58:22.565Z,5480
2018-01-30T10:59:44.409Z,5912
2018-01-30T11:01:06.592Z,5144
2018-01-30T11:02:28.506Z,5924
2018-01-30T11:03:50.662Z,5744
2018-01-30T11:05:12.773Z,5792
2018-01-30T11:06:34.642Z,6976
2018-01-30T11:07:56.069Z,7512
2018-01-30T11:09:18.255Z,8020
2018-01-30T11:10:39.631Z,7900
2018-01-30T11:12:01.587Z,7244
2018-01-30T11:13:23.220Z,5576
2018-01-30T11:14:44.658Z,5636
2018-01-30T11:16:05.909Z,5484
2018-01-30T11:17:27.869Z,5720
2018-01-30T11:18:50.022Z,6364
2018-01-30T11:20:11.723Z,7676
2018-01-30T11:21:33.658Z,6104
2018-01-30T11:22:55.331Z,6124
2018-01-30T11:24:16.952Z,7864
2018-01-30T11:25:38.821Z,7592
2018-01-30T11:27:00.953Z,7160
2018-01-30T11:28:22.822Z,6096
2018-01-30T11:29:44.430Z,6436
2018-01-30T11:31:05.766Z,8616
2018-01-30T11:32:27.937Z,9308
2018-01-30T11:33:50.100Z,8624
2018-01-30T11:35:11.760Z,8844
2018-01-30T11:36:33.645Z,9024
2018-01-30T11:37:55.573Z,8728
2018-01-30T11:39:17.454Z,8580
2018-01-30T11:40:38.676Z,8416
2018-01-30T11:42:00.565Z,7432
2018-01-30T11:43:22.642Z,7556
2018-01-30T11:44:44.252Z,7128
2018-01-30T11:46:06.108Z,7100
2018-01-30T11:47:27.702Z,7684
2018-01-30T11:48:49.861Z,7704
2018-01-30T11:50:11.225Z,7860
2018-01-30T11:51:32.864Z,7560
2018-01-30T11:52:54.472Z,7232
2018-01-30T11:54:16.577Z,6832
2018-01-30T11:55:38.226Z,6476
2018-01-30T11:57:00.335Z,6024
2018-01-30T11:58:22.458Z,5784
2018-01-30T11:59:44.070Z,5840
2018-01-30T12:01:06.031Z,6216
2018-01-30T12:02:27.922Z,6600
2018-01-30T12:03:49.280Z,6756
2018-01-30T12:05:11.610Z,7160
2018-01-30T12:06:33.204Z,7320
2018-01-30T12:07:55.393Z,6996
2018-01-30T12:09:17.812Z,7488
2018-01-30T12:10:39.471Z,7224
2018-01-30T12:12:01.416Z,6720
2018-01-30T12:13:23.296Z,5988
2018-01-30T12:14:45.418Z,5736
2018-01-30T12:16:07.513Z,6568
2018-01-30T12:17:29.641Z,6600
2018-01-30T12:18:51.811Z,7564
2018-01-30T12:20:14.043Z,8040
2018-01-30T12:21:36.360Z,6444
2018-01-30T12:22:58.236Z,6652
2018-01-30T12:24:20.342Z,6056
2018-01-30T12:25:42.361Z,5500
2018-01-30T12:27:03.977Z,5120
2018-01-30T12:28:25.602Z,5184
2018-01-30T12:29:47.497Z,4964
2018-01-30T12:31:09.693Z,5680
2018-01-30T12:32:31.114Z,6252
2018-01-30T12:33:52.771Z,6356
2018-01-30T12:35:14.895Z,6376
2018-01-30T12:36:37.018Z,7460
2018-01-30T12:37:59.161Z,8100
2018-01-30T12:39:20.791Z,8056
2018-01-30T12:40:42.142Z,8232
2018-01-30T12:42:03.854Z,9644
2018-01-30T12:43:25.816Z,10188
2018-01-30T12:44:47.803Z,10552
2018-01-30T12:46:09.935Z,10540
2018-01-30T12:47:31.916Z,10412
2018-01-30T12:48:54.328Z,10356
2018-01-30T12:50:16.179Z,10180
2018-01-30T12:51:38.082Z,9896
2018-01-30T12:53:00.032Z,9724
2018-01-30T12:54:22.317Z,9428
2018-01-30T12:55:44.475Z,10084
2018-01-30T12:57:06.644Z,9588
2018-01-30T12:58:28.800Z,9716
2018-01-30T12:59:50.993Z,9976
2018-01-30T13:01:12.951Z,9664
2018-01-30T13:02:34.648Z,9772
2018-01-30T13:03:56.516Z,10572
2018-01-30T13:05:18.100Z,11172
2018-01-30T13:06:39.990Z,11612
2018-01-30T13:08:01.584Z,11172
2018-01-30T13:09:23.572Z,11152
2018-01-30T13:10:45.714Z,10784
2018-01-30T13:12:07.334Z,10840
2018-01-30T13:13:29.492Z,11172
2018-01-30T13:14:51.636Z,11596
2018-01-30T13:16:13.540Z,11736
2018-01-30T13:17:35.709Z,11024
2018-01-30T13:18:57.064Z,10972
2018-01-30T13:20:18.680Z,11356
2018-01-30T13:21:40.041Z,11252
2018-01-30T13:23:01.936Z,10320
2018-01-30T13:24:23.852Z,9612
2018-01-30T13:25:45.979Z,8636
2018-01-30T13:27:07.594Z,8216
2018-01-30T13:28:29.781Z,7784
2018-01-30T13:29:51.823Z,7532
2018-01-30T13:31:13.958Z,6996
2018-01-30T13:32:36.070Z,6636
2018-01-30T13:33:58.384Z,5748
2018-01-30T13:35:20.252Z,5016
2018-01-30T13:36:42.393Z,4564
2018-01-30T13:38:04.382Z,4476
2018-01-30T13:39:26.264Z,4708
2018-01-30T13:40:48.114Z,4848
2018-01-30T13:42:10.051Z,4968
2018-01-30T13:43:32.010Z,5380
2018-01-30T13:44:53.902Z,5872
2018-01-30T13:46:16.052Z,5884
2018-01-30T13:47:37.965Z,5544
2018-01-30T13:49:00.210Z,4520
2018-01-30T13:50:22.162Z,3616
2018-01-30T13:51:44.043Z,3820
2018-01-30T13:53:06.060Z,4708
2018-01-30T13:54:28.185Z,5152
2018-01-30T13:55:50.312Z,5564
2018-01-30T13:57:12.365Z,4580
2018-01-30T13:58:33.716Z,3424
2018-01-30T13:59:55.905Z,4036
2018-01-30T14:01:17.542Z,3784
2018-01-30T14:02:39.700Z,3708
2018-01-30T14:04:01.819Z,3364
2018-01-30T14:05:23.970Z,3208
2018-01-30T14:06:46.151Z,3120
2018-01-30T14:08:07.786Z,3368
2018-01-30T14:09:29.936Z,3260
2018-01-30T14:10:52.385Z,3312
2018-01-30T14:12:14.539Z,3200
2018-01-30T14:13:36.440Z,3276
2018-01-30T14:14:58.334Z,3420
2018-01-30T14:16:20.500Z,3192
2018-01-30T14:17:42.292Z,3136
2018-01-30T14:19:04.170Z,3152
2018-01-30T14:20:26.202Z,3256
2018-01-30T14:21:48.491Z,3080
2018-01-30T14:23:10.691Z,3000
2018-01-30T14:24:32.836Z,2940
2018-01-30T14:25:54.814Z,2920
2018-01-30T14:27:16.758Z,2948
2018-01-30T14:28:38.406Z,2944
2018-01-30T14:30:00.312Z,2936
2018-01-30T14:31:22.552Z,3096
2018-01-30T14:32:44.545Z,3268
2018-01-30T14:34:06.665Z,3116
2018-01-30T14:35:28.849Z,2904
2018-01-30T14:36:50.999Z,3116
2018-01-30T14:38:12.891Z,3380
2018-01-30T14:39:34.909Z,3676
2018-01-30T14:40:57.149Z,3944
2018-01-30T14:42:19.268Z,4000
2018-01-30T14:43:41.432Z,3964
2018-01-30T14:45:02.533Z,3700
2018-01-30T14:46:24.445Z,3288
2018-01-30T14:47:46.967Z,2840
2018-01-30T14:49:09.003Z,2616
2018-01-30T14:50:30.901Z,2460
2018-01-30T14:51:52.854Z,2416
2018-01-30T14:53:14.701Z,2352
2018-01-30T14:54:36.619Z,2336
2018-01-30T14:55:58.281Z,2344
2018-01-30T14:57:20.433Z,2296
2018-01-30T14:58:42.580Z,2264
2018-01-30T15:00:04.732Z,2196
2018-01-30T15:01:26.345Z,2172
2018-01-30T15:02:47.695Z,2172
2018-01-30T15:04:09.844Z,2184
2018-01-30T15:05:32.142Z,2252
2018-01-30T15:06:54.732Z,2308
2018-01-30T15:08:16.871Z,2360
2018-01-30T15:09:39.024Z,2412
2018-01-30T15:11:00.623Z,2412
2018-01-30T15:12:22.790Z,2400
2018-01-30T15:13:44.740Z,2424
2018-01-30T15:15:06.397Z,2348
2018-01-30T15:16:29.393Z,2288
2018-01-30T15:17:51.764Z,2168
2018-01-30T15:19:14.011Z,2168
2018-01-30T15:20:36.171Z,1980
2018-01-30T15:21:58.575Z,1836
2018-01-30T15:23:20.461Z,1716
2018-01-30T15:24:42.716Z,1676
2018-01-30T15:26:04.884Z,1652
2018-01-30T15:27:26.777Z,1576
2018-01-30T15:28:49.136Z,1540
2018-01-30T15:30:11.347Z,1496
2018-01-30T15:31:33.229Z,1432
2018-01-30T15:32:55.091Z,1312
2018-01-30T15:34:17.010Z,1248
2018-01-30T15:35:38.933Z,1196
2018-01-30T15:37:01.239Z,1108
2018-01-30T15:38:23.389Z,992
2018-01-30T15:39:45.515Z,892
2018-01-30T15:41:07.671Z,776
2018-01-30T15:42:29.519Z,720
2018-01-30T15:43:51.476Z,688
2018-01-30T15:45:13.645Z,656
2018-01-30T15:46:35.518Z,608
2018-01-30T15:47:56.644Z,552
2018-01-30T15:49:18.874Z,484
2018-01-30T15:50:40.953Z,424
2018-01-30T15:52:03.240Z,388
2018-01-30T15:53:25.150Z,352
2018-01-30T15:54:47.013Z,328
2018-01-30T15:56:09.214Z,300
2018-01-30T15:57:31.203Z,280
2018-01-30T15:58:53.080Z,256
2018-01-30T16:00:15.497Z,232
2018-01-30T16:01:37.672Z,204
2018-01-30T16:02:59.863Z,180
2018-01-30T16:04:21.761Z,156
2018-01-30T16:05:44.172Z,144
2018-01-30T16:07:06.101Z,124
2018-01-30T16:08:28.264Z,112
2018-01-30T16:09:50.606Z,100
2018-01-30T16:11:12.534Z,88
2018-01-30T16:12:34.788Z,80
2018-01-30T16:13:57.005Z,72
2018-01-30T16:15:19.263Z,60
2018-01-30T16:16:41.274Z,48
2018-01-30T16:18:03.422Z,44
2018-01-30T16:19:25.544Z,44
2018-01-30T16:20:47.196Z,40
2018-01-30T16:22:09.352Z,24
2018-01-30T16:23:31.544Z,16
2018-01-30T16:24:53.942Z,12
2018-01-30T16:26:15.837Z,12
2018-01-30T16:27:38.085Z,8
2018-01-30T16:29:00.282Z,8
2018-01-30T16:30:22.193Z,8
2018-01-30T16:31:44.203Z,4
2018-01-30T16:33:06.431Z,4
2018-01-30T16:34:28.541Z,4
2018-01-30T16:35:50.444Z,4
2018-01-30T16:37:12.515Z,0
2018-01-30T16:38:34.423Z,12
2018-01-30T16:39:56.575Z,16
2018-01-30T16:41:18.745Z,12
2018-01-30T16:42:40.962Z,12
2018-01-30T16:44:03.296Z,12
2018-01-30T16:45:25.344Z,12
2018-01-30T16:46:47.600Z,0
2018-01-30T16:48:09.483Z,0
2018-01-30T16:49:31.384Z,0
2018-01-30T16:50:53.563Z,0
2018-01-30T16:52:15.883Z,0
2018-01-30T16:53:38.104Z,0
2018-01-30T16:55:00.311Z,0
2018-01-30T16:56:22.005Z,0
2018-01-30T16:57:44.194Z,0
2018-01-30T16:59:06.569Z,0
2018-01-30T17:00:28.706Z,0
2018-01-30T17:01:50.887Z,0
2018-01-30T17:03:13.172Z,0
2018-01-30T17:04:35.812Z,0
2018-01-30T17:05:57.883Z,0
2018-01-30T17:07:20.148Z,0
2018-01-30T17:08:42.329Z,0
2018-01-30T17:10:04.226Z,0
2018-01-30T17:11:26.385Z,0
2018-01-30T17:12:48.434Z,0
2018-01-30T17:14:10.625Z,0
2018-01-30T17:15:32.524Z,0
2018-01-30T17:16:54.490Z,0
2018-01-30T17:18:16.749Z,0
2018-01-30T17:19:39.096Z,0
2018-01-30T17:21:01.076Z,0
2018-01-30T17:22:23.223Z,0
2018-01-30T17:23:45.094Z,0
2018-01-30T17:25:07.399Z,0
2018-01-30T17:26:29.399Z,0
2018-01-30T17:27:51.335Z,0
2018-01-30T17:29:13.302Z,0
2018-01-30T17:30:35.217Z,0
2018-01-30T17:31:57.112Z,0
2018-01-30T17:33:19.238Z,0
2018-01-30T17:34:41.134Z,0
2018-01-30T17:36:03.300Z,0
2018-01-30T17:37:25.463Z,0
2018-01-30T17:38:47.362Z,0
2018-01-30T17:40:09.503Z,0
2018-01-30T17:41:31.736Z,0
2018-01-30T17:42:53.654Z,0
2018-01-30T17:44:15.842Z,0
2018-01-30T17:45:37.717Z,0
2018-01-30T17:46:59.614Z,0
2018-01-30T17:48:21.756Z,0
2018-01-30T17:49:43.669Z,0
2018-01-30T17:51:05.384Z,0
2018-01-30T17:52:27.544Z,0
2018-01-30T17:53:48.903Z,0
2018-01-30T17:55:11.142Z,0
2018-01-30T17:56:33.062Z,0
2018-01-30T17:57:55.220Z,0
2018-01-30T17:59:17.694Z,0
2018-01-30T18:00:39.982Z,0
2018-01-30T18:02:02.144Z,0
2018-01-30T18:03:24.432Z,0
2018-01-30T18:04:46.578Z,0
2018-01-30T18:06:08.890Z,0
2018-01-30T18:07:30.808Z,0
2018-01-30T18:08:52.951Z,0
2018-01-30T18:10:15.135Z,0
2018-01-30T18:11:36.758Z,0
2018-01-30T18:12:58.911Z,0
2018-01-30T18:14:20.823Z,0
2018-01-30T18:15:42.713Z,0
2018-01-30T18:17:04.903Z,0
2018-01-30T18:18:27.143Z,0
2018-01-30T18:19:49.452Z,0
2018-01-30T18:21:11.385Z,0
2018-01-30T18:22:33.470Z,0
2018-01-30T18:23:55.374Z,0
2018-01-30T18:25:17.338Z,0
2018-01-30T18:26:39.533Z,0
2018-01-30T18:28:01.512Z,0
2018-01-30T18:29:23.402Z,0
2018-01-30T18:30:45.602Z,0
2018-01-30T18:32:07.510Z,0
2018-01-30T18:33:29.423Z,0
2018-01-30T18:34:51.335Z,0
2018-01-30T18:36:13.267Z,0
2018-01-30T18:37:35.524Z,0
2018-01-30T18:38:57.688Z,0
2018-01-30T18:40:19.698Z,0
2018-01-30T18:41:41.321Z,0
2018-01-30T18:43:03.380Z,0
2018-01-30T18:44:25.534Z,0
2018-01-30T18:45:47.555Z,0
2018-01-30T18:47:09.581Z,0
2018-01-30T18:48:31.866Z,0
2018-01-30T18:49:54.042Z,0
2018-01-30T18:51:16.222Z,0
2018-01-30T18:52:38.514Z,0
2018-01-30T18:54:00.726Z,0
2018-01-30T18:55:22.601Z,0
2018-01-30T18:56:44.556Z,0
2018-01-30T18:58:06.174Z,0
2018-01-30T18:59:28.313Z,0
2018-01-30T19:00:50.498Z,0
2018-01-30T19:02:12.393Z,0
2018-01-30T19:03:34.283Z,0
2018-01-30T19:04:56.174Z,0
2018-01-30T19:06:18.343Z,0
2018-01-30T19:07:40.230Z,0
2018-01-30T19:09:02.127Z,0
2018-01-30T19:10:23.861Z,0